Time;durP1;ratioP1;P1;durP2;ratioP2;P2;SDS_P1;SDS_P2;PMS_P1;PMS_P2;Temp;Humidity;BMP_temperature;BMP_pressure;BME280_temperature;BME280_humidity;BME280_pressure;Samples;Min_cycle;Max_cycle;Signal;HPM_P1;HPM_P2
2022/10/02 00:01:06;;;;;;;5.20;4.90;;;19.80;66.10;;;;;;5055922;28;43484;-76
2022/10/02 00:03:35;;;;;;;4.73;4.53;;;19.80;66.30;;;;;;5056671;28;43461;-77
2022/10/02 00:06:05;;;;;;;5.23;4.93;;;19.80;65.90;;;;;;5051713;28;43856;-74
2022/10/02 00:08:34;;;;;;;4.47;4.27;;;19.80;65.90;;;;;;5030882;28;43432;-75
2022/10/02 00:11:06;;;;;;;4.63;4.43;;;19.80;65.90;;;;;;5060112;28;43437;-75
2022/10/02 00:13:39;;;;;;;5.17;4.77;;;19.80;65.90;;;;;;5040540;28;43827;-75
2022/10/02 00:16:11;;;;;;;4.77;4.47;;;19.70;66.60;;;;;;5060372;28;43940;-75
2022/10/02 00:18:39;;;;;;;4.80;4.50;;;19.80;66.30;;;;;;5056988;28;43367;-74
2022/10/02 00:21:10;;;;;;;3.93;3.83;;;19.90;65.80;;;;;;5060908;28;43405;-75
2022/10/02 00:23:39;;;;;;;4.73;4.53;;;20.10;65.40;;;;;;5060546;28;43499;-76
2022/10/02 00:26:09;;;;;;;4.63;4.40;;;20.10;65.10;;;;;;5037779;28;46473;-76
2022/10/02 00:28:42;;;;;;;4.73;4.53;;;20.10;65.10;;;;;;5059911;28;43447;-75
2022/10/02 00:31:23;;;;;;;4.27;4.07;;;20.10;65.60;;;;;;5053112;28;43431;-77
2022/10/02 00:33:58;;;;;;;5.17;4.77;;;20.10;65.50;;;;;;5057168;28;44092;-77
2022/10/02 00:36:31;;;;;;;4.63;4.43;;;20.10;65.40;;;;;;5058807;28;43898;-75
2022/10/02 00:39:02;;;;;;;4.47;4.27;;;20.00;65.30;;;;;;5053142;28;43913;-77
2022/10/02 00:42:03;;;;;;;4.80;4.60;;;19.90;65.30;;;;;;5065305;28;43493;-76
2022/10/02 00:44:52;;;;;;;4.30;4.10;;;19.90;65.70;;;;;;5033892;28;43480;-75
2022/10/02 00:47:23;;;;;;;4.30;4.10;;;19.90;66.10;;;;;;5057756;28;43945;-75
2022/10/02 00:49:57;;;;;;;4.20;4.00;;;19.90;65.80;;;;;;5062486;28;44996;-75
2022/10/02 00:52:40;;;;;;;4.20;4.00;;;19.80;65.70;;;;;;5058367;28;43427;-75
2022/10/02 00:55:36;;;;;;;4.10;4.00;;;19.80;65.60;;;;;;5061046;28;43468;-74
2022/10/02 00:58:13;;;;;;;4.67;4.37;;;19.80;65.90;;;;;;5026075;28;43869;-76
2022/10/02 01:00:43;;;;;;;4.30;4.10;;;19.80;66.40;;;;;;5062836;28;43462;-74
2022/10/02 01:03:14;;;;;;;4.30;4.10;;;19.90;66.10;;;;;;5049227;28;43901;-76
2022/10/02 01:05:42;;;;;;;4.20;4.00;;;20.00;65.60;;;;;;5056764;28;43439;-76
2022/10/02 01:08:09;;;;;;;4.80;4.50;;;20.20;65.20;;;;;;5059927;28;43920;-75
2022/10/02 01:10:37;;;;;;;3.90;3.80;;;20.20;64.90;;;;;;5054334;28;44203;-75
2022/10/02 01:13:05;;;;;;;4.00;3.80;;;20.20;64.80;;;;;;5056577;28;43419;-74
2022/10/02 01:15:35;;;;;;;4.07;3.87;;;20.20;64.90;;;;;;5058264;28;43601;-75
2022/10/02 01:18:04;;;;;;;3.97;3.83;;;20.10;65.10;;;;;;5062672;28;45724;-76
2022/10/02 01:20:35;;;;;;;3.87;3.77;;;20.00;65.30;;;;;;5056226;28;43508;-76
2022/10/02 01:23:15;;;;;;;4.10;3.90;;;19.90;65.90;;;;;;5057323;28;43979;-75
2022/10/02 01:25:44;;;;;;;3.90;3.70;;;19.90;65.80;;;;;;5062490;28;43416;-77
2022/10/02 01:28:12;;;;;;;4.30;4.10;;;19.90;65.70;;;;;;5052639;28;43607;-76
2022/10/02 01:30:41;;;;;;;4.07;3.87;;;19.90;65.80;;;;;;5052773;28;44077;-76
2022/10/02 01:33:09;;;;;;;3.63;3.43;;;19.80;65.80;;;;;;5060262;28;43383;-76
2022/10/02 01:35:37;;;;;;;3.80;3.60;;;19.80;66.40;;;;;;5037980;28;43433;-76
2022/10/02 01:38:07;;;;;;;4.17;3.97;;;19.80;66.20;;;;;;5044879;28;44225;-77
2022/10/02 01:40:36;;;;;;;3.40;3.30;;;19.80;65.90;;;;;;5059431;28;43971;-72
2022/10/02 01:43:07;;;;;;;3.43;3.33;;;19.80;65.90;;;;;;5059239;28;43482;-75
2022/10/02 01:45:52;;;;;;;3.67;3.57;;;19.80;66.70;;;;;;5057810;28;43507;-75
2022/10/02 01:48:26;;;;;;;3.90;3.80;;;19.70;66.00;;;;;;5062016;28;44453;-77
2022/10/02 01:51:00;;;;;;;4.20;3.90;;;19.70;66.60;;;;;;5060723;28;44993;-76
2022/10/02 01:53:30;;;;;;;3.83;3.73;;;19.80;66.30;;;;;;5052292;28;43443;-77
2022/10/02 01:56:03;;;;;;;3.63;3.43;;;20.00;65.90;;;;;;5058130;28;44077;-76
2022/10/02 01:58:36;;;;;;;3.97;3.77;;;20.10;65.30;;;;;;5053929;28;44636;-76
2022/10/02 02:01:07;;;;;;;3.50;3.40;;;20.20;64.90;;;;;;5059884;28;43369;-75
2022/10/02 02:03:39;;;;;;;3.43;3.33;;;20.20;64.80;;;;;;5055458;28;43452;-75
2022/10/02 02:06:09;;;;;;;3.63;3.53;;;20.20;64.80;;;;;;5050889;28;43748;-77
2022/10/02 02:08:39;;;;;;;3.03;2.90;;;20.10;65.00;;;;;;5056413;28;45333;-75
2022/10/02 02:11:10;;;;;;;3.43;3.23;;;20.00;65.20;;;;;;5058035;28;43551;-76
2022/10/02 02:13:44;;;;;;;3.23;3.13;;;20.00;65.90;;;;;;5059581;28;43392;-77
2022/10/02 02:16:17;;;;;;;3.50;3.40;;;20.00;65.90;;;;;;5051623;28;43509;-77
2022/10/02 02:18:48;;;;;;;3.60;3.40;;;19.90;65.70;;;;;;5056408;28;43608;-75
2022/10/02 02:21:17;;;;;;;3.27;3.17;;;19.90;65.70;;;;;;5051795;28;43539;-76
2022/10/02 02:23:49;;;;;;;3.20;3.10;;;19.90;65.80;;;;;;5056825;28;43638;-75
2022/10/02 02:26:17;;;;;;;3.17;3.07;;;19.80;66.30;;;;;;5052001;28;43958;-74
2022/10/02 02:28:49;;;;;;;3.40;3.30;;;19.80;66.20;;;;;;5055923;28;45632;-75
2022/10/02 02:31:18;;;;;;;2.73;2.67;;;20.00;66.00;;;;;;5059812;28;44588;-75
2022/10/02 02:33:48;;;;;;;3.20;3.10;;;20.00;65.50;;;;;;5046845;28;43498;-76
2022/10/02 02:36:18;;;;;;;3.20;3.10;;;20.10;65.30;;;;;;5057748;28;43543;-76
2022/10/02 02:38:47;;;;;;;3.10;3.00;;;20.00;65.20;;;;;;5055642;28;43916;-76
2022/10/02 02:41:16;;;;;;;2.63;2.63;;;20.00;65.70;;;;;;5061514;28;45080;-76
2022/10/02 02:43:47;;;;;;;2.70;2.70;;;20.00;65.60;;;;;;5052522;28;43443;-75
2022/10/02 02:46:18;;;;;;;3.00;2.90;;;20.00;65.50;;;;;;5052397;28;43383;-75
2022/10/02 02:48:48;;;;;;;3.10;3.00;;;19.90;65.40;;;;;;5056717;28;43835;-75
2022/10/02 02:51:18;;;;;;;2.80;2.70;;;19.90;65.60;;;;;;5056161;28;43388;-77
2022/10/02 02:53:48;;;;;;;3.00;2.90;;;19.90;66.30;;;;;;5055653;28;43423;-76
2022/10/02 02:56:17;;;;;;;3.53;3.40;;;19.80;66.00;;;;;;5050481;28;43441;-75
2022/10/02 02:58:48;;;;;;;3.07;2.97;;;19.80;65.80;;;;;;5058384;28;43900;-76
2022/10/02 03:01:16;;;;;;;2.90;2.80;;;19.80;65.80;;;;;;5057749;28;44905;-77
2022/10/02 03:03:44;;;;;;;2.93;2.83;;;19.80;65.90;;;;;;5052399;28;43436;-76
2022/10/02 03:06:27;;;;;;;3.20;3.10;;;19.80;66.30;;;;;;5042293;28;43631;-75
2022/10/02 03:08:55;;;;;;;3.30;3.10;;;19.80;66.50;;;;;;5058168;28;43897;-75
2022/10/02 03:11:27;;;;;;;2.90;2.80;;;19.90;66.10;;;;;;5059653;28;44584;-75
2022/10/02 03:14:00;;;;;;;3.23;3.13;;;20.10;65.70;;;;;;5053634;28;43455;-74
2022/10/02 03:16:35;;;;;;;2.90;2.80;;;20.20;65.10;;;;;;5055683;28;44039;-73
2022/10/02 03:19:16;;;;;;;2.80;2.70;;;20.20;64.90;;;;;;5054997;28;43569;-74
2022/10/02 03:21:47;;;;;;;2.60;2.50;;;20.20;64.80;;;;;;5056252;28;43422;-75
2022/10/02 03:24:17;;;;;;;2.63;2.53;;;20.10;64.90;;;;;;5055481;28;43407;-77
2022/10/02 03:26:47;;;;;;;2.90;2.80;;;20.00;65.10;;;;;;5050728;28;43411;-75
2022/10/02 03:29:18;;;;;;;3.30;3.10;;;20.00;65.40;;;;;;5061844;28;43854;-75
2022/10/02 03:31:46;;;;;;;3.50;3.30;;;19.90;65.90;;;;;;5054616;28;43377;-74
2022/10/02 03:34:14;;;;;;;3.27;3.07;;;19.90;65.90;;;;;;5039090;28;44043;-75
2022/10/02 03:36:42;;;;;;;3.07;2.97;;;19.90;65.80;;;;;;5058869;28;43447;-74
2022/10/02 03:39:10;;;;;;;2.93;2.83;;;19.90;65.80;;;;;;5056047;28;44231;-75
2022/10/02 03:41:54;;;;;;;3.50;3.30;;;19.80;65.80;;;;;;5053214;28;43579;-75
2022/10/02 03:44:23;;;;;;;3.90;3.60;;;19.80;66.40;;;;;;5059119;28;43487;-76
2022/10/02 03:46:51;;;;;;;4.00;3.60;;;19.80;67.00;;;;;;5054459;28;43498;-75
2022/10/02 03:49:19;;;;;;;3.70;3.40;;;19.90;65.80;;;;;;5056618;28;43803;-74
2022/10/02 03:51:47;;;;;;;5.40;3.60;;;20.00;65.60;;;;;;5039159;28;44850;-75
2022/10/02 03:54:16;;;;;;;3.67;3.40;;;20.00;65.30;;;;;;5059701;28;44004;-75
2022/10/02 03:56:46;;;;;;;3.87;3.57;;;20.00;65.40;;;;;;5043927;28;43865;-75
2022/10/02 03:59:17;;;;;;;3.83;3.43;;;20.00;65.80;;;;;;5056822;28;43826;-76
2022/10/02 04:01:50;;;;;;;3.63;3.33;;;20.00;65.60;;;;;;5051594;28;45326;-75
2022/10/02 04:04:21;;;;;;;3.80;3.50;;;20.00;65.50;;;;;;5058339;28;43412;-76
2022/10/02 04:06:50;;;;;;;4.27;3.80;;;19.90;65.40;;;;;;5055325;28;43400;-76
2022/10/02 04:09:20;;;;;;;3.73;3.43;;;19.90;65.60;;;;;;5061899;28;45251;-75
2022/10/02 04:11:49;;;;;;;3.57;3.27;;;19.80;65.70;;;;;;5056243;28;43792;-76
2022/10/02 04:14:19;;;;;;;3.93;3.60;;;19.80;66.20;;;;;;5056458;28;43685;-75
2022/10/02 04:16:52;;;;;;;4.00;3.70;;;19.80;66.00;;;;;;5057293;28;43459;-76
2022/10/02 04:19:22;;;;;;;3.80;3.50;;;19.80;65.90;;;;;;5041209;28;45703;-74
2022/10/02 04:21:53;;;;;;;3.70;3.40;;;19.80;65.80;;;;;;5061984;28;44961;-77
2022/10/02 04:24:25;;;;;;;4.77;3.93;;;19.80;65.90;;;;;;5060033;28;43380;-76
2022/10/02 04:26:59;;;;;;;3.97;3.50;;;19.80;66.40;;;;;;5058705;28;43461;-76
2022/10/02 04:29:28;;;;;;;4.10;3.60;;;19.80;66.30;;;;;;5057449;28;43945;-75
2022/10/02 04:32:01;;;;;;;3.60;3.30;;;19.90;65.90;;;;;;5061490;28;44839;-74
2022/10/02 04:34:29;;;;;;;3.70;3.37;;;20.10;65.50;;;;;;5040904;28;43454;-73
2022/10/02 04:37:05;;;;;;;3.60;3.30;;;20.20;65.00;;;;;;5057589;28;43542;-76
2022/10/02 04:39:40;;;;;;;3.77;3.40;;;20.30;64.80;;;;;;5060093;28;43883;-75
2022/10/02 04:42:23;;;;;;;4.17;3.50;;;20.20;64.70;;;;;;5052788;28;43502;-77
2022/10/02 04:44:59;;;;;;;4.47;3.93;;;20.20;64.90;;;;;;5047585;28;43541;-75
2022/10/02 04:48:00;;;;;;;4.53;3.70;;;20.10;65.10;;;;;;5038692;28;43572;-74
2022/10/02 04:50:40;;;;;;;3.90;3.60;;;20.00;65.60;;;;;;5063264;28;43673;-74
2022/10/02 04:53:20;;;;;;;3.87;3.50;;;20.00;65.80;;;;;;5055432;28;43427;-73
2022/10/02 04:56:04;;;;;;;3.70;3.40;;;20.00;65.60;;;;;;5060666;28;43473;-76
2022/10/02 04:58:56;;;;;;;4.13;3.80;;;19.90;65.60;;;;;;5038884;28;43578;-77
2022/10/02 05:01:29;;;;;;;3.90;3.60;;;19.90;65.70;;;;;;5038971;28;44140;-74
2022/10/02 05:04:06;;;;;;;4.33;3.50;;;19.80;66.10;;;;;;5057665;28;43487;-75
2022/10/02 05:06:44;;;;;;;3.70;3.40;;;19.90;66.20;;;;;;5057831;28;43463;-75
2022/10/02 05:09:15;;;;;;;4.20;3.80;;;19.90;66.00;;;;;;5055684;28;43617;-75
2022/10/02 05:12:03;;;;;;;3.70;3.40;;;19.80;65.80;;;;;;5059420;28;43931;-75
2022/10/02 05:14:49;;;;;;;3.60;3.30;;;19.80;65.80;;;;;;5062016;28;44769;-75
2022/10/02 05:17:25;;;;;;;3.73;3.43;;;19.80;66.10;;;;;;5054311;28;43856;-75
2022/10/02 05:20:03;;;;;;;3.80;3.50;;;19.80;66.40;;;;;;5053145;28;43550;-76
2022/10/02 05:22:49;;;;;;;3.93;3.60;;;19.90;66.10;;;;;;5050982;28;43845;-75
2022/10/02 05:25:44;;;;;;;3.87;3.57;;;20.10;65.50;;;;;;5055358;28;43523;-77
2022/10/02 05:28:28;;;;;;;3.43;3.23;;;20.20;65.80;;;;;;5060503;28;43887;-76
2022/10/02 05:31:03;;;;;;;3.50;3.10;;;20.20;65.70;;;;;;5052285;28;43585;-76
2022/10/02 05:33:50;;;;;;;3.37;3.17;;;20.20;65.40;;;;;;5058800;28;45358;-77
2022/10/02 05:36:28;;;;;;;3.23;3.03;;;20.20;65.30;;;;;;5057165;28;43423;-76
2022/10/02 05:39:02;;;;;;;3.33;3.07;;;20.10;65.10;;;;;;5057600;28;43419;-76
2022/10/02 05:41:35;;;;;;;3.33;3.10;;;20.00;65.20;;;;;;5058876;28;43499;-77
2022/10/02 05:44:06;;;;;;;3.63;3.33;;;20.00;65.40;;;;;;5053781;28;43616;-75
2022/10/02 05:46:37;;;;;;;3.30;3.10;;;19.90;66.00;;;;;;5056176;28;43577;-75
2022/10/02 05:49:06;;;;;;;3.60;3.30;;;19.90;66.00;;;;;;5053181;28;43466;-74
2022/10/02 05:51:37;;;;;;;3.40;3.20;;;19.90;65.80;;;;;;5053221;28;43392;-76
2022/10/02 05:54:11;;;;;;;3.13;2.87;;;19.90;65.70;;;;;;5052347;28;43608;-76
2022/10/02 05:56:39;;;;;;;3.40;3.20;;;19.80;65.70;;;;;;5060397;28;43391;-76
2022/10/02 05:59:08;;;;;;;3.00;2.90;;;19.80;65.90;;;;;;5054797;28;43547;-75
2022/10/02 06:01:38;;;;;;;3.20;3.00;;;19.80;66.50;;;;;;5052720;28;43546;-77
2022/10/02 06:04:07;;;;;;;2.87;2.77;;;19.90;66.30;;;;;;5050284;28;43689;-77
2022/10/02 06:06:38;;;;;;;3.40;3.10;;;20.00;65.80;;;;;;5055860;28;43551;-75
2022/10/02 06:09:12;;;;;;;2.73;2.63;;;20.10;65.50;;;;;;5052665;28;43353;-77
2022/10/02 06:11:47;;;;;;;3.00;2.80;;;20.10;65.30;;;;;;5038322;28;43627;-74
2022/10/02 06:14:20;;;;;;;3.00;2.80;;;20.10;65.50;;;;;;5056256;28;44888;-75
2022/10/02 06:16:51;;;;;;;2.73;2.53;;;20.00;65.60;;;;;;5047017;28;44310;-75
2022/10/02 06:19:21;;;;;;;3.50;3.27;;;20.10;65.50;;;;;;5059842;28;43468;-75
2022/10/02 06:21:50;;;;;;;2.50;2.40;;;20.00;65.40;;;;;;5056339;28;43415;-76
2022/10/02 06:24:21;;;;;;;2.47;2.30;;;20.00;65.50;;;;;;5055378;28;43624;-74
2022/10/02 06:26:51;;;;;;;3.30;3.10;;;19.90;65.50;;;;;;5054656;28;43550;-77
2022/10/02 06:29:20;;;;;;;3.40;3.20;;;19.90;66.10;;;;;;5052533;28;43424;-75
2022/10/02 06:32:06;;;;;;;2.70;2.60;;;19.90;66.20;;;;;;5053381;28;43488;-75
2022/10/02 06:34:34;;;;;;;2.40;2.30;;;20.00;65.90;;;;;;5064561;28;45612;-76
2022/10/02 06:37:18;;;;;;;2.70;2.60;;;20.10;65.60;;;;;;5061543;28;43483;-75
2022/10/02 06:39:59;;;;;;;3.23;3.00;;;20.10;65.30;;;;;;5055831;28;43375;-76
2022/10/02 06:42:33;;;;;;;2.90;2.80;;;20.00;65.30;;;;;;5060263;28;43463;-76
2022/10/02 06:45:05;;;;;;;3.17;2.87;;;20.00;65.60;;;;;;5055120;28;43667;-74
2022/10/02 06:47:43;;;;;;;2.90;2.77;;;20.00;65.60;;;;;;5060137;28;44378;-77
2022/10/02 06:50:26;;;;;;;2.77;2.60;;;20.00;65.50;;;;;;5054201;28;43396;-74
2022/10/02 06:52:58;;;;;;;2.60;2.50;;;19.90;65.40;;;;;;5053123;28;44090;-76
2022/10/02 06:55:40;;;;;;;2.67;2.53;;;19.90;65.70;;;;;;5053978;28;43619;-75
2022/10/02 06:58:22;;;;;;;3.07;2.80;;;19.90;66.30;;;;;;5032787;28;44587;-76
2022/10/02 07:00:52;;;;;;;2.37;2.27;;;19.90;66.00;;;;;;5053479;28;43487;-76
2022/10/02 07:03:30;;;;;;;2.80;2.70;;;19.80;65.80;;;;;;5053752;28;43509;-76
2022/10/02 07:06:10;;;;;;;2.67;2.53;;;19.80;65.80;;;;;;5051876;28;45642;-76
2022/10/02 07:09:00;;;;;;;2.47;2.37;;;19.80;65.90;;;;;;5037225;28;44407;-75
2022/10/02 07:11:32;;;;;;;2.87;2.77;;;19.80;66.60;;;;;;5034270;28;43502;-76
2022/10/02 07:14:07;;;;;;;2.60;2.50;;;19.80;66.30;;;;;;5053614;28;43653;-76
2022/10/02 07:16:41;;;;;;;2.70;2.60;;;20.00;65.90;;;;;;5053144;28;43876;-74
2022/10/02 07:19:25;;;;;;;2.63;2.53;;;20.10;65.40;;;;;;5058656;28;43571;-75
2022/10/02 07:21:55;;;;;;;2.57;2.47;;;20.20;65.00;;;;;;5065852;28;43503;-75
2022/10/02 07:24:33;;;;;;;2.80;2.60;;;20.20;64.80;;;;;;5055423;28;43511;-77
2022/10/02 07:27:04;;;;;;;2.83;2.60;;;20.20;64.90;;;;;;5053506;28;43612;-75
2022/10/02 07:29:39;;;;;;;2.47;2.37;;;20.10;65.10;;;;;;5058886;28;43496;-76
2022/10/02 07:32:23;;;;;;;2.13;2.03;;;20.00;65.20;;;;;;5060461;28;43395;-75
2022/10/02 07:34:55;;;;;;;2.63;2.50;;;20.00;65.90;;;;;;5065151;28;43598;-75
2022/10/02 07:37:25;;;;;;;2.63;2.53;;;20.00;66.00;;;;;;5051461;28;45764;-75
2022/10/02 07:40:08;;;;;;;2.30;2.20;;;19.90;65.80;;;;;;5065185;28;43471;-74
2022/10/02 07:42:54;;;;;;;2.40;2.30;;;19.90;65.80;;;;;;5038177;28;43848;-76
2022/10/02 07:45:29;;;;;;;2.40;2.30;;;19.80;65.70;;;;;;5057343;28;43400;-74
2022/10/02 07:48:24;;;;;;;2.50;2.40;;;19.80;66.20;;;;;;5065666;28;45763;-75
2022/10/02 07:51:04;;;;;;;2.33;2.23;;;19.80;66.30;;;;;;5041384;28;44709;-74
2022/10/02 07:53:37;;;;;;;2.50;2.30;;;19.80;65.90;;;;;;5055645;28;43510;-75
2022/10/02 07:56:06;;;;;;;2.37;2.20;;;19.80;65.90;;;;;;5060589;28;43467;-76
2022/10/02 07:58:38;;;;;;;2.30;2.20;;;19.80;65.90;;;;;;5053539;28;44090;-74
2022/10/02 08:01:11;;;;;;;2.67;2.57;;;19.80;66.10;;;;;;5052292;28;43490;-75
2022/10/02 08:03:42;;;;;;;2.40;2.30;;;19.80;66.60;;;;;;5057620;28;44563;-75
2022/10/02 08:06:10;;;;;;;2.30;2.20;;;19.80;66.20;;;;;;5061622;28;43435;-77
2022/10/02 08:08:39;;;;;;;2.20;2.10;;;20.00;65.90;;;;;;5056547;28;43934;-74
2022/10/02 08:11:08;;;;;;;2.40;2.30;;;20.20;65.40;;;;;;5060437;28;44139;-75
2022/10/02 08:13:40;;;;;;;2.00;1.90;;;20.30;65.00;;;;;;5060753;28;43432;-75
2022/10/02 08:16:08;;;;;;;2.23;2.20;;;20.30;64.70;;;;;;5056422;28;43426;-77
2022/10/02 08:18:37;;;;;;;2.30;2.20;;;20.30;64.80;;;;;;5062259;28;45495;-74
2022/10/02 08:21:09;;;;;;;1.80;1.80;;;20.20;65.00;;;;;;5059004;28;43970;-75
2022/10/02 08:23:39;;;;;;;2.10;2.00;;;20.00;65.10;;;;;;5037388;28;43391;-77
2022/10/02 08:26:09;;;;;;;2.37;2.27;;;20.00;65.50;;;;;;5057623;28;43581;-75
2022/10/02 08:28:41;;;;;;;2.30;2.20;;;19.90;65.90;;;;;;5054516;28;43894;-75
2022/10/02 08:31:10;;;;;;;2.00;1.90;;;20.00;65.80;;;;;;5060145;28;43918;-77
2022/10/02 08:33:38;;;;;;;2.20;2.10;;;19.90;65.70;;;;;;5060444;28;43341;-75
2022/10/02 08:36:33;;;;;;;2.40;2.30;;;19.90;65.80;;;;;;5039850;28;43439;-76
2022/10/02 08:39:08;;;;;;;2.03;1.97;;;19.80;65.80;;;;;;5059657;28;43903;-76
2022/10/02 08:42:03;;;;;;;2.20;2.10;;;19.80;66.40;;;;;;5061715;28;44386;-77
2022/10/02 08:45:08;;;;;;;2.17;2.10;;;19.80;66.20;;;;;;5058766;28;43455;-75
2022/10/02 08:48:06;;;;;;;2.13;2.13;;;19.80;66.00;;;;;;5057539;28;43974;-75
2022/10/02 08:50:46;;;;;;;2.20;2.10;;;19.80;66.00;;;;;;5062710;28;46070;-77
2022/10/02 08:53:29;;;;;;;1.90;1.80;;;19.80;66.20;;;;;;5056886;28;43503;-76
2022/10/02 08:56:05;;;;;;;1.80;1.80;;;19.80;66.60;;;;;;5057726;28;43551;-73
2022/10/02 08:58:52;;;;;;;1.97;1.97;;;19.90;66.10;;;;;;5058264;28;43479;-75
2022/10/02 09:01:33;;;;;;;2.40;2.30;;;20.00;65.60;;;;;;5058278;28;43873;-75
2022/10/02 09:04:39;;;;;;;2.10;2.00;;;20.20;65.30;;;;;;5041371;28;45136;-76
2022/10/02 09:07:38;;;;;;;1.63;1.63;;;20.20;65.10;;;;;;5057882;28;43906;-75
2022/10/02 09:10:30;;;;;;;2.20;2.10;;;20.10;65.50;;;;;;5021145;28;44211;-75
2022/10/02 09:13:21;;;;;;;2.23;2.13;;;20.10;65.40;;;;;;5061649;28;43603;-76
2022/10/02 09:15:54;;;;;;;1.97;1.87;;;20.10;65.30;;;;;;5058123;28;43431;-76
2022/10/02 09:18:34;;;;;;;1.90;1.90;;;20.00;65.50;;;;;;5060947;28;43430;-76
2022/10/02 09:21:15;;;;;;;2.10;2.00;;;19.90;65.50;;;;;;5050640;28;44122;-75
2022/10/02 09:24:14;;;;;;;1.93;1.93;;;19.90;66.10;;;;;;5042251;28;44970;-75
2022/10/02 09:27:03;;;;;;;1.90;1.90;;;19.90;66.20;;;;;;5062245;28;44382;-73
2022/10/02 09:29:57;;;;;;;1.97;1.87;;;19.90;66.00;;;;;;5038227;28;43506;-75
2022/10/02 09:32:44;;;;;;;1.80;1.80;;;19.80;65.90;;;;;;5056911;28;43409;-74
2022/10/02 09:35:36;;;;;;;1.77;1.77;;;19.80;66.00;;;;;;5044275;28;45170;-74
2022/10/02 09:38:29;;;;;;;1.97;1.97;;;19.80;66.60;;;;;;5060797;28;44043;-75
2022/10/02 09:41:08;;;;;;;1.80;1.80;;;19.80;66.30;;;;;;5055370;28;43625;-75
2022/10/02 09:44:05;;;;;;;2.37;2.27;;;20.00;65.90;;;;;;5060662;28;43345;-76
2022/10/02 09:47:02;;;;;;;1.70;1.70;;;20.20;65.30;;;;;;5054850;28;43924;-74
2022/10/02 09:49:50;;;;;;;2.00;1.90;;;20.30;64.90;;;;;;5053908;28;43492;-73
2022/10/02 09:52:55;;;;;;;2.00;1.90;;;20.30;64.80;;;;;;5052827;28;43381;-74
2022/10/02 09:56:02;;;;;;;2.03;2.00;;;20.20;65.00;;;;;;5058926;28;43455;-74
2022/10/02 09:59:15;;;;;;;2.00;1.90;;;20.10;65.30;;;;;;4994762;28;43916;-75
2022/10/02 10:01:58;;;;;;;1.70;1.70;;;20.00;65.90;;;;;;4944005;28;43463;-76
2022/10/02 10:04:55;;;;;;;1.90;1.90;;;20.00;65.90;;;;;;5055445;28;43528;-76
2022/10/02 10:07:52;;;;;;;1.80;1.80;;;19.90;65.70;;;;;;5059173;28;43814;-75
2022/10/02 10:10:30;;;;;;;2.00;2.00;;;19.90;65.80;;;;;;5060345;28;44754;-76
2022/10/02 10:13:19;;;;;;;1.80;1.80;;;19.80;65.80;;;;;;5049273;28;43506;-74
2022/10/02 10:16:28;;;;;;;2.00;1.90;;;19.80;66.40;;;;;;5030768;28;43397;-75
2022/10/02 10:19:28;;;;;;;1.90;1.90;;;19.80;66.20;;;;;;5033125;28;43451;-74
2022/10/02 10:22:20;;;;;;;2.13;2.13;;;19.80;66.10;;;;;;5063168;28;45690;-77
2022/10/02 10:25:09;;;;;;;2.10;2.00;;;19.80;66.00;;;;;;5045847;28;44494;-76
2022/10/02 10:28:23;;;;;;;2.20;2.10;;;19.80;66.40;;;;;;5045120;28;43919;-75
2022/10/02 10:31:27;;;;;;;2.30;2.20;;;19.80;66.60;;;;;;5060810;28;43443;-76
2022/10/02 10:34:20;;;;;;;2.10;2.00;;;20.00;66.20;;;;;;5056163;28;43932;-76
2022/10/02 10:40:23;;;;;;;2.50;2.40;;;20.30;65.10;;;;;;5057618;28;43544;-76
2022/10/02 10:43:28;;;;;;;1.63;1.63;;;20.30;64.80;;;;;;5006793;28;43495;-75
2022/10/02 10:46:08;;;;;;;2.13;2.03;;;20.20;64.90;;;;;;5051582;28;43662;-74
2022/10/02 10:48:46;;;;;;;1.97;1.87;;;20.10;65.10;;;;;;5064920;28;44326;-76
2022/10/02 10:51:27;;;;;;;2.13;2.03;;;20.10;65.50;;;;;;5040422;28;44034;-76
2022/10/02 10:54:16;;;;;;;2.23;2.13;;;20.00;66.20;;;;;;5053012;28;43397;-75
2022/10/02 10:56:45;;;;;;;2.20;2.10;;;20.00;65.90;;;;;;5056409;28;43753;-75
2022/10/02 10:59:50;;;;;;;1.90;1.90;;;19.90;65.80;;;;;;5055097;28;43441;-76
2022/10/02 11:02:59;;;;;;;2.10;2.00;;;19.90;65.90;;;;;;5051717;28;44040;-74
2022/10/02 11:05:56;;;;;;;2.00;2.00;;;19.80;66.20;;;;;;5022511;28;43448;-75
2022/10/02 11:09:11;;;;;;;2.00;1.90;;;19.90;66.40;;;;;;5004362;28;45550;-76
2022/10/02 11:11:44;;;;;;;2.00;1.90;;;19.80;66.20;;;;;;4994221;28;43575;-75
2022/10/02 11:14:25;;;;;;;2.00;1.90;;;19.80;66.10;;;;;;5046407;28;43509;-74
2022/10/02 11:17:16;;;;;;;2.13;2.03;;;19.80;66.20;;;;;;5063456;28;43474;-76
2022/10/02 11:19:51;;;;;;;1.83;1.83;;;19.80;66.70;;;;;;5056374;28;44016;-75
2022/10/02 11:22:41;;;;;;;2.07;1.97;;;19.80;66.70;;;;;;5056200;28;43452;-75
2022/10/02 11:25:27;;;;;;;2.00;1.90;;;20.00;66.40;;;;;;5049258;28;43468;-74
2022/10/02 11:28:20;;;;;;;1.80;1.80;;;20.10;66.30;;;;;;5035396;28;43492;-75
2022/10/02 11:30:53;;;;;;;1.90;1.80;;;20.30;65.30;;;;;;5040239;28;43954;-76
2022/10/02 11:33:32;;;;;;;1.70;1.60;;;20.30;65.10;;;;;;5053153;28;45021;-76
2022/10/02 11:39:34;;;;;;;1.80;1.80;;;20.20;65.10;;;;;;5103047;27;44453;-75
2022/10/02 11:42:17;;;;;;;1.80;1.80;;;20.00;65.50;;;;;;5071640;27;45004;-75
2022/10/02 11:44:54;;;;;;;1.70;1.60;;;20.00;66.20;;;;;;5090330;27;44077;-75
2022/10/02 11:47:46;;;;;;;1.83;1.83;;;20.00;66.00;;;;;;5077066;27;43323;-76
2022/10/02 11:50:57;;;;;;;1.70;1.70;;;19.90;65.90;;;;;;5082253;28;43942;-76
2022/10/02 11:53:34;;;;;;;1.63;1.63;;;19.90;66.00;;;;;;5081692;28;43493;-75
2022/10/02 11:56:13;;;;;;;1.73;1.70;;;19.80;66.00;;;;;;5083186;28;43456;-75
2022/10/02 11:58:46;;;;;;;1.53;1.53;;;19.80;66.50;;;;;;5081303;28;43462;-75
2022/10/02 12:01:20;;;;;;;1.90;1.80;;;19.90;66.40;;;;;;5076527;28;43611;-75
2022/10/02 12:03:53;;;;;;;1.53;1.53;;;19.80;66.20;;;;;;5079387;28;44795;-76
2022/10/02 12:06:32;;;;;;;1.47;1.47;;;19.80;66.20;;;;;;5083016;27;43436;-76
2022/10/02 12:09:04;;;;;;;1.90;1.80;;;19.80;66.20;;;;;;5082439;28;43546;-76
2022/10/02 12:11:39;;;;;;;1.70;1.70;;;19.80;66.90;;;;;;5081002;28;45407;-75
2022/10/02 12:14:19;;;;;;;1.60;1.60;;;19.90;66.70;;;;;;5081965;28;43530;-74
2022/10/02 12:16:57;;;;;;;1.80;1.80;;;20.00;66.20;;;;;;5081754;28;43417;-76
2022/10/02 12:19:31;;;;;;;1.80;1.80;;;20.10;65.80;;;;;;5081274;28;43494;-75
2022/10/02 12:27:45;;;;;;;1.60;1.60;;;20.10;65.80;;;;;;5082005;27;43904;-75
2022/10/02 12:30:14;;;;;;;1.30;1.30;;;20.10;65.70;;;;;;5082435;27;43440;-77
2022/10/02 12:32:58;;;;;;;1.30;1.30;;;20.00;65.60;;;;;;5080797;28;45872;-76
2022/10/02 12:35:36;;;;;;;1.40;1.40;;;20.00;65.80;;;;;;5089525;27;44595;-77
2022/10/02 12:38:12;;;;;;;1.60;1.60;;;19.90;66.00;;;;;;5075795;28;43478;-74
2022/10/02 12:40:43;;;;;;;1.70;1.70;;;19.90;66.40;;;;;;5088725;27;43566;-76
2022/10/02 12:43:49;;;;;;;1.37;1.37;;;19.90;66.10;;;;;;5078305;27;44016;-74
2022/10/02 12:46:25;;;;;;;1.40;1.40;;;19.90;66.10;;;;;;5080969;28;44569;-75
2022/10/02 12:49:00;;;;;;;1.70;1.70;;;19.80;66.10;;;;;;5075307;27;43590;-75
2022/10/02 12:51:33;;;;;;;1.50;1.50;;;19.80;66.50;;;;;;5063357;28;43493;-75
2022/10/02 12:54:32;;;;;;;1.30;1.30;;;19.80;66.80;;;;;;5065756;28;43845;-76
2022/10/02 13:00:13;;;;;;;1.30;1.30;;;20.10;65.80;;;;;;5066998;28;43503;-73
2022/10/02 13:03:19;;;;;;;1.30;1.30;;;20.20;65.60;;;;;;5064511;28;43569;-74
2022/10/02 13:05:52;;;;;;;1.57;1.57;;;20.10;65.30;;;;;;5066806;28;43851;-75
2022/10/02 13:08:27;;;;;;;1.47;1.47;;;20.10;65.90;;;;;;5068449;28;43585;-75
2022/10/02 13:11:00;;;;;;;1.30;1.30;;;20.10;65.70;;;;;;5064863;28;43549;-76
2022/10/02 13:13:45;;;;;;;1.23;1.23;;;20.10;65.70;;;;;;5068194;28;43421;-75
2022/10/02 13:16:20;;;;;;;1.40;1.40;;;20.00;65.70;;;;;;5066570;28;45706;-75
2022/10/02 13:18:56;;;;;;;1.30;1.30;;;20.00;65.90;;;;;;5066222;28;43490;-74
2022/10/02 13:21:29;;;;;;;1.10;1.10;;;19.90;66.50;;;;;;5067355;28;43398;-75
2022/10/02 13:24:05;;;;;;;1.33;1.33;;;19.90;66.40;;;;;;5068705;28;43431;-75
2022/10/02 13:26:37;;;;;;;1.60;1.60;;;19.90;66.20;;;;;;5064910;28;44019;-76
2022/10/02 13:29:24;;;;;;;1.27;1.27;;;19.90;66.20;;;;;;5065496;28;43910;-72
2022/10/02 13:32:09;;;;;;;1.60;1.50;;;19.80;66.20;;;;;;5067397;28;43489;-77
2022/10/02 13:34:45;;;;;;;1.40;1.40;;;19.80;66.20;;;;;;5065591;28;44017;-76
2022/10/02 13:37:16;;;;;;;1.53;1.37;;;19.80;66.20;;;;;;5063158;28;43933;-75
2022/10/02 13:40:04;;;;;;;3.50;1.50;;;19.80;66.20;;;;;;5065238;28;45038;-76
2022/10/02 13:42:39;;;;;;;1.60;1.50;;;19.80;66.10;;;;;;5067484;28;43415;-74
2022/10/02 13:45:12;;;;;;;1.30;1.30;;;19.80;66.20;;;;;;5065499;28;43747;-77
2022/10/02 13:47:43;;;;;;;1.40;1.40;;;19.80;66.60;;;;;;5067156;28;43914;-75
2022/10/02 13:50:34;;;;;;;3.47;1.70;;;19.80;66.90;;;;;;5067015;28;43422;-77
2022/10/02 13:53:18;;;;;;;1.27;1.27;;;19.90;66.50;;;;;;5063795;28;43458;-76
2022/10/02 13:55:48;;;;;;;1.63;1.60;;;20.10;65.90;;;;;;5065266;28;43489;-76
2022/10/02 13:58:22;;;;;;;1.40;1.40;;;20.30;65.40;;;;;;5066874;28;43839;-77